createdAt,value
2018-12-06T00:00:18.462Z,8.03
2018-12-06T00:02:46.030Z,13.03
2018-12-06T00:05:13.686Z,10.10
2018-12-06T00:07:45.251Z,11.43
2018-12-06T00:10:12.801Z,12.50
2018-12-06T00:12:40.362Z,10.20
2018-12-06T00:15:18.741Z,10.23
2018-12-06T00:17:46.310Z,12.73
2018-12-06T00:20:14.152Z,9.10
2018-12-06T00:22:41.721Z,10.57
2018-12-06T00:25:09.291Z,10.70
2018-12-06T00:27:37.136Z,10.63
2018-12-06T00:30:16.485Z,8.77
2018-12-06T00:32:44.175Z,11.63
2018-12-06T00:35:11.733Z,12.10
2018-12-06T00:37:39.312Z,16.07
2018-12-06T00:40:07.098Z,15.90
2018-12-06T00:42:35.380Z,9.30
2018-12-06T00:45:02.957Z,12.03
2018-12-06T00:47:30.517Z,11.43
2018-12-06T00:49:58.085Z,11.73
2018-12-06T00:52:25.645Z,12.20
2018-12-06T00:55:16.942Z,12.60
2018-12-06T00:57:44.578Z,12.13
2018-12-06T01:00:13.090Z,13.13
2018-12-06T01:02:40.773Z,12.70
2018-12-06T01:05:09.545Z,11.57
2018-12-06T01:07:37.677Z,14.63
2018-12-06T01:10:05.743Z,17.33
2018-12-06T01:12:33.420Z,10.63
2018-12-06T01:15:01.025Z,11.80
2018-12-06T01:17:28.602Z,18.03
2018-12-06T01:19:56.192Z,10.57
2018-12-06T01:22:23.750Z,13.20
2018-12-06T01:24:51.327Z,13.73
2018-12-06T01:27:18.894Z,11.83
2018-12-06T01:29:46.452Z,15.47
2018-12-06T01:32:14.021Z,9.80
2018-12-06T01:34:41.597Z,11.80
2018-12-06T01:37:09.162Z,12.53
2018-12-06T01:39:36.729Z,19.67
2018-12-06T01:42:04.286Z,12.57
2018-12-06T01:44:31.857Z,11.90
2018-12-06T01:46:59.424Z,12.30
2018-12-06T01:49:27.548Z,12.27
2018-12-06T01:51:55.205Z,14.50
2018-12-06T01:54:22.764Z,17.07
2018-12-06T01:56:50.343Z,13.07
2018-12-06T01:59:17.906Z,14.07
2018-12-06T02:01:46.269Z,14.77
2018-12-06T02:04:15.681Z,13.57
2018-12-06T02:06:43.440Z,11.93
2018-12-06T02:09:11.025Z,13.10
2018-12-06T02:11:38.998Z,14.97
2018-12-06T02:14:06.571Z,13.23
2018-12-06T02:16:34.673Z,17.03
2018-12-06T02:19:02.238Z,17.30
2018-12-06T02:21:29.793Z,14.10
2018-12-06T02:23:57.346Z,14.17
2018-12-06T02:26:25.034Z,20.23
2018-12-06T02:28:53.318Z,12.93
2018-12-06T02:31:20.889Z,13.53
2018-12-06T02:33:49.052Z,15.47
2018-12-06T02:36:16.613Z,15.40
2018-12-06T02:38:44.685Z,16.37
2018-12-06T02:41:12.261Z,17.47
2018-12-06T02:43:39.839Z,14.20
2018-12-06T02:46:07.402Z,14.00
2018-12-06T02:48:34.978Z,13.60
2018-12-06T02:51:02.565Z,13.10
2018-12-06T02:53:30.137Z,12.47
2018-12-06T02:55:57.842Z,14.40
2018-12-06T02:58:25.406Z,13.80
2018-12-06T03:00:53.450Z,12.80
2018-12-06T03:03:21.043Z,12.13
2018-12-06T03:05:48.590Z,15.83
2018-12-06T03:08:16.152Z,15.73
2018-12-06T03:10:43.734Z,12.67
2018-12-06T03:13:11.296Z,16.87
2018-12-06T03:15:38.964Z,15.13
2018-12-06T03:18:06.540Z,13.00
2018-12-06T03:20:34.101Z,12.93
2018-12-06T03:23:01.664Z,13.67
2018-12-06T03:25:29.238Z,14.37
2018-12-06T03:27:56.790Z,16.83
2018-12-06T03:30:24.347Z,18.70
2018-12-06T03:32:51.920Z,13.83
2018-12-06T03:35:19.481Z,16.73
2018-12-06T03:37:47.045Z,17.90
2018-12-06T03:40:17.780Z,21.80
2018-12-06T03:42:45.450Z,19.17
2018-12-06T03:45:13.093Z,16.90
2018-12-06T03:47:40.691Z,22.47
2018-12-06T03:50:08.248Z,20.13
2018-12-06T03:52:35.826Z,24.23
2018-12-06T03:55:03.677Z,21.03
2018-12-06T03:57:31.358Z,22.70
2018-12-06T04:00:02.286Z,21.03
2018-12-06T04:02:29.874Z,20.20
2018-12-06T04:04:58.238Z,21.87
2018-12-06T04:07:25.828Z,21.93
2018-12-06T04:09:53.418Z,25.40
2018-12-06T04:12:20.986Z,25.60
2018-12-06T04:14:48.546Z,23.90
2018-12-06T04:17:17.188Z,24.10
2018-12-06T04:19:44.779Z,24.50
2018-12-06T04:22:12.339Z,27.47
2018-12-06T04:24:39.911Z,21.93
2018-12-06T04:27:07.468Z,23.70
2018-12-06T04:29:35.035Z,27.80
2018-12-06T04:32:02.610Z,24.27
2018-12-06T04:34:30.185Z,25.60
2018-12-06T04:36:57.746Z,25.77
2018-12-06T04:39:25.313Z,25.17
2018-12-06T04:41:53.781Z,23.00
2018-12-06T04:44:21.508Z,26.30
2018-12-06T04:46:49.085Z,25.13
2018-12-06T04:49:16.648Z,21.70
2018-12-06T04:51:44.224Z,25.23
2018-12-06T04:54:11.808Z,23.60
2018-12-06T04:56:39.374Z,24.53
2018-12-06T04:59:06.942Z,23.80
2018-12-06T05:01:34.549Z,25.43
2018-12-06T05:04:02.117Z,26.00
2018-12-06T05:06:29.676Z,23.60
2018-12-06T05:08:57.233Z,27.73
2018-12-06T05:11:24.854Z,24.13
2018-12-06T05:13:52.425Z,26.03
2018-12-06T05:16:20.035Z,26.20
2018-12-06T05:18:48.015Z,23.03
2018-12-06T05:21:15.583Z,20.50
2018-12-06T05:23:43.248Z,26.20
2018-12-06T05:26:10.823Z,29.07
2018-12-06T05:28:38.416Z,25.17
2018-12-06T05:31:06.003Z,27.03
2018-12-06T05:33:33.575Z,30.03
2018-12-06T05:36:01.279Z,22.53
2018-12-06T05:38:28.866Z,29.30
2018-12-06T05:40:56.455Z,29.07
2018-12-06T05:43:24.025Z,25.90
2018-12-06T05:45:53.162Z,26.93
2018-12-06T05:48:20.732Z,28.30
2018-12-06T05:50:48.312Z,28.80
2018-12-06T05:53:15.918Z,28.37
2018-12-06T05:55:43.492Z,29.83
2018-12-06T05:58:11.081Z,30.13
2018-12-06T06:00:38.663Z,29.47
2018-12-06T06:03:06.854Z,31.27
2018-12-06T06:05:34.426Z,29.63
2018-12-06T06:08:03.503Z,28.20
2018-12-06T06:10:31.537Z,29.27
2018-12-06T06:12:59.511Z,30.67
2018-12-06T06:15:27.693Z,27.23
2018-12-06T06:17:55.262Z,28.87
2018-12-06T06:20:22.842Z,24.63
2018-12-06T06:22:50.455Z,27.43
2018-12-06T06:25:19.013Z,27.23
2018-12-06T06:27:49.375Z,25.77
2018-12-06T06:30:16.963Z,28.80
2018-12-06T06:32:44.614Z,29.13
2018-12-06T06:35:12.289Z,28.27
2018-12-06T06:37:39.888Z,29.63
2018-12-06T06:40:08.756Z,28.97
2018-12-06T06:42:37.598Z,26.00
2018-12-06T06:45:06.367Z,29.83
2018-12-06T06:47:35.240Z,28.37
2018-12-06T06:50:03.953Z,33.63
2018-12-06T06:52:32.238Z,29.23
2018-12-06T06:54:59.817Z,34.03
2018-12-06T06:57:27.973Z,29.47
2018-12-06T06:59:57.133Z,31.40
2018-12-06T07:02:26.176Z,29.20
2018-12-06T07:04:56.049Z,29.63
2018-12-06T07:07:24.178Z,33.57
2018-12-06T07:09:51.753Z,31.93
2018-12-06T07:12:19.353Z,31.27
2018-12-06T07:14:46.941Z,34.63
2018-12-06T07:17:15.176Z,33.03
2018-12-06T07:19:42.749Z,31.97
2018-12-06T07:22:10.330Z,31.07
2018-12-06T07:24:37.922Z,38.10
2018-12-06T07:27:05.824Z,40.73
2018-12-06T07:29:33.443Z,33.70
2018-12-06T07:32:06.665Z,36.03
2018-12-06T07:34:34.490Z,30.87
2018-12-06T07:37:03.262Z,36.67
2018-12-06T07:39:31.732Z,32.27
2018-12-06T07:41:59.307Z,34.47
2018-12-06T07:44:27.901Z,35.27
2018-12-06T07:46:55.677Z,39.17
2018-12-06T07:49:23.261Z,32.33
2018-12-06T07:51:52.615Z,33.57
2018-12-06T07:54:20.947Z,34.10
2018-12-06T07:56:48.565Z,29.03
2018-12-06T07:59:16.184Z,30.50
2018-12-06T08:01:44.249Z,26.33
2018-12-06T08:04:12.589Z,28.77
2018-12-06T08:06:40.200Z,25.20
2018-12-06T08:09:10.893Z,30.33
2018-12-06T08:11:40.454Z,25.83
2018-12-06T08:14:08.122Z,27.83
2018-12-06T08:16:35.696Z,24.37
2018-12-06T08:19:03.344Z,26.50
2018-12-06T08:21:30.988Z,26.77
2018-12-06T08:23:58.589Z,24.67
2018-12-06T08:26:27.128Z,26.27
2018-12-06T08:28:54.856Z,27.23
2018-12-06T08:34:22.335Z,22.87
2018-12-06T08:36:49.962Z,25.40
2018-12-06T08:39:19.036Z,23.37
2018-12-06T08:41:49.612Z,22.13
2018-12-06T08:44:21.412Z,26.80
2018-12-06T08:46:47.957Z,19.27
2018-12-06T08:49:26.201Z,22.63
2018-12-06T08:51:54.324Z,19.13
2018-12-06T08:54:22.200Z,21.30
2018-12-06T08:56:51.732Z,21.00
2018-12-06T08:59:19.411Z,23.00
2018-12-06T09:01:47.006Z,24.67
2018-12-06T09:04:17.191Z,20.33
2018-12-06T09:06:45.158Z,21.57
2018-12-06T09:09:13.264Z,24.03
2018-12-06T09:11:40.886Z,21.50
2018-12-06T09:14:09.946Z,21.27
2018-12-06T09:16:38.768Z,20.30
2018-12-06T09:19:07.921Z,21.37
2018-12-06T09:21:35.818Z,19.93
2018-12-06T09:24:04.509Z,20.17
2018-12-06T09:26:33.325Z,20.23
2018-12-06T09:29:01.527Z,21.80
2018-12-06T09:31:29.384Z,22.50
2018-12-06T09:34:05.317Z,23.57
2018-12-06T09:36:33.438Z,24.70
2018-12-06T09:39:02.850Z,20.93
2018-12-06T09:41:33.196Z,20.53
2018-12-06T09:44:01.645Z,19.83
2018-12-06T09:46:34.565Z,23.70
2018-12-06T09:49:03.059Z,20.23
2018-12-06T09:51:37.897Z,18.37
2018-12-06T09:54:05.626Z,17.80
2018-12-06T09:56:33.820Z,19.83
2018-12-06T09:59:01.688Z,18.80
2018-12-06T10:01:29.535Z,21.50
2018-12-06T10:03:57.177Z,18.53
2018-12-06T10:06:25.079Z,19.70
2018-12-06T10:08:53.657Z,20.93
2018-12-06T10:11:22.001Z,19.00
2018-12-06T10:13:49.583Z,17.53
2018-12-06T10:16:18.180Z,21.10
2018-12-06T10:18:49.746Z,21.40
2018-12-06T10:21:20.693Z,22.00
2018-12-06T10:23:48.549Z,20.93
2018-12-06T10:26:18.882Z,22.10
2018-12-06T10:28:47.657Z,18.77
2018-12-06T10:31:16.311Z,23.97
2018-12-06T10:33:45.158Z,22.20
2018-12-06T10:36:14.526Z,21.37
2018-12-06T10:38:42.135Z,22.23
2018-12-06T10:41:10.365Z,20.73
2018-12-06T10:43:38.768Z,27.80
2018-12-06T10:46:06.510Z,21.97
2018-12-06T10:48:35.569Z,22.00
2018-12-06T10:51:15.267Z,21.93
2018-12-06T10:53:44.125Z,25.37
2018-12-06T10:56:11.704Z,25.70
2018-12-06T10:58:39.345Z,24.60
2018-12-06T11:01:08.447Z,27.20
2018-12-06T11:07:19.452Z,26.90
2018-12-06T11:09:48.549Z,22.80
2018-12-06T11:12:17.161Z,25.30
2018-12-06T11:14:48.179Z,26.20
2018-12-06T11:17:16.697Z,25.13
2018-12-06T11:19:46.952Z,22.83
2018-12-06T11:22:16.157Z,24.20
2018-12-06T11:24:45.164Z,24.90
2018-12-06T11:27:19.077Z,24.03
2018-12-06T11:29:47.478Z,24.53
2018-12-06T11:32:15.752Z,21.73
2018-12-06T11:34:45.873Z,22.83
2018-12-06T11:37:16.147Z,23.00
2018-12-06T11:39:44.602Z,23.50
2018-12-06T11:42:12.216Z,21.97
2018-12-06T11:44:43.620Z,22.83
2018-12-06T11:47:13.672Z,22.43
2018-12-06T11:49:42.535Z,21.13
2018-12-06T11:54:53.236Z,22.07
2018-12-06T11:57:22.595Z,21.20
2018-12-06T11:59:54.035Z,20.40
2018-12-06T12:02:21.780Z,23.87
2018-12-06T12:04:50.290Z,23.17
2018-12-06T12:07:18.217Z,23.50
2018-12-06T12:09:46.276Z,23.30
2018-12-06T12:12:16.046Z,22.73
2018-12-06T12:14:44.105Z,24.13
2018-12-06T12:17:15.270Z,23.80
2018-12-06T12:31:57.710Z,30.77
2018-12-06T12:34:25.365Z,30.60
2018-12-06T12:39:29.991Z,29.60
2018-12-06T12:42:04.525Z,28.50
2018-12-06T12:44:32.224Z,31.60
2018-12-06T12:46:59.824Z,28.57
2018-12-06T12:49:29.583Z,31.00
2018-12-06T12:54:42.274Z,31.80
2018-12-06T12:57:12.220Z,32.03
2018-12-06T12:59:41.019Z,34.90
2018-12-06T13:02:16.466Z,28.83
2018-12-06T13:04:55.198Z,30.87
2018-12-06T13:07:23.649Z,28.73
2018-12-06T13:09:53.826Z,34.47
2018-12-06T13:16:51.985Z,30.30
2018-12-06T13:19:20.994Z,29.97
2018-12-06T13:21:51.097Z,30.40
2018-12-06T13:24:18.711Z,26.20
2018-12-06T13:26:46.927Z,28.87
2018-12-06T13:29:15.781Z,28.83
2018-12-06T13:31:43.721Z,25.90
2018-12-06T13:34:11.575Z,29.03
2018-12-06T13:36:39.273Z,29.60
2018-12-06T13:39:09.170Z,30.50
2018-12-06T13:41:46.227Z,26.27
2018-12-06T13:44:16.299Z,28.20
2018-12-06T13:46:47.202Z,31.47
2018-12-06T13:49:21.814Z,29.87
2018-12-06T13:51:55.143Z,32.13
2018-12-06T13:54:27.085Z,24.90
2018-12-06T13:56:57.162Z,31.77
2018-12-06T13:59:25.328Z,31.27
2018-12-06T14:01:55.701Z,26.67
2018-12-06T14:04:23.350Z,29.17
2018-12-06T14:06:53.059Z,29.60
2018-12-06T14:09:23.267Z,26.20
2018-12-06T14:11:51.461Z,24.97
2018-12-06T14:14:22.426Z,26.77
2018-12-06T14:16:54.540Z,27.63
2018-12-06T14:22:01.337Z,27.17
2018-12-06T14:24:29.238Z,25.17
2018-12-06T14:27:02.809Z,32.73
2018-12-06T14:29:31.168Z,26.53
2018-12-06T14:32:00.418Z,28.43
2018-12-06T14:34:29.211Z,32.43
2018-12-06T14:37:02.081Z,29.57
2018-12-06T14:39:30.810Z,30.17
2018-12-06T14:42:01.073Z,32.73
2018-12-06T14:44:32.185Z,32.40
2018-12-06T14:47:03.723Z,35.33
2018-12-06T14:49:31.731Z,31.63
2018-12-06T14:52:00.858Z,37.40
2018-12-06T14:54:29.258Z,34.97
2018-12-06T14:56:57.907Z,41.03
2018-12-06T14:59:26.159Z,35.63
2018-12-06T15:01:55.999Z,37.97
2018-12-06T15:04:29.921Z,40.43
2018-12-06T15:06:58.731Z,38.47
2018-12-06T15:09:28.148Z,37.30
2018-12-06T15:12:02.363Z,32.20
2018-12-06T15:14:30.075Z,32.73
2018-12-06T15:16:58.358Z,32.37
2018-12-06T15:19:27.745Z,34.93
2018-12-06T15:21:56.435Z,32.20
2018-12-06T15:24:25.582Z,33.67
2018-12-06T15:26:57.117Z,38.40
2018-12-06T15:29:25.079Z,32.37
2018-12-06T15:31:52.751Z,33.20
2018-12-06T15:34:21.962Z,31.30
2018-12-06T15:36:50.364Z,36.03
2018-12-06T15:39:18.907Z,39.17
2018-12-06T15:41:50.426Z,35.60
2018-12-06T15:44:20.137Z,35.03
2018-12-06T15:46:48.865Z,33.60
2018-12-06T15:49:17.428Z,33.47
2018-12-06T15:51:50.188Z,35.07
2018-12-06T15:54:18.224Z,32.60
2018-12-06T15:56:49.160Z,33.40
2018-12-06T15:59:21.000Z,29.47
2018-12-06T16:01:49.670Z,34.90
2018-12-06T16:04:19.183Z,30.50
2018-12-06T16:06:48.416Z,32.83
2018-12-06T16:09:26.209Z,38.70
2018-12-06T16:11:55.688Z,32.80
2018-12-06T16:14:24.124Z,31.67
2018-12-06T16:16:53.959Z,32.47
2018-12-06T16:19:22.295Z,29.60
2018-12-06T16:27:20.800Z,31.90
2018-12-06T16:29:51.472Z,31.30
2018-12-06T16:32:22.844Z,31.17
2018-12-06T16:34:51.831Z,31.20
2018-12-06T16:37:26.292Z,29.93
2018-12-06T16:39:58.374Z,33.23
2018-12-06T16:42:26.206Z,30.70
2018-12-06T16:44:57.222Z,31.40
2018-12-06T16:47:26.104Z,41.23
2018-12-06T16:49:56.658Z,33.93
2018-12-06T16:52:26.605Z,39.83
2018-12-06T16:57:30.324Z,36.03
2018-12-06T17:00:09.660Z,37.07
2018-12-06T17:02:40.119Z,30.40
2018-12-06T17:05:08.233Z,33.87
2018-12-06T17:07:37.191Z,33.77
2018-12-06T17:10:08.187Z,31.60
2018-12-06T17:12:37.286Z,30.97
2018-12-06T17:15:07.238Z,29.23
2018-12-06T17:17:36.023Z,34.17
2018-12-06T17:20:05.146Z,29.23
2018-12-06T17:22:33.592Z,26.20
2018-12-06T17:25:01.264Z,31.87
2018-12-06T17:27:29.569Z,28.77
2018-12-06T17:29:57.302Z,32.57
2018-12-06T17:32:27.004Z,28.57
2018-12-06T17:34:55.528Z,30.33
2018-12-06T17:37:24.244Z,37.23
2018-12-06T17:39:52.084Z,31.97
2018-12-06T17:42:23.174Z,31.50
2018-12-06T17:44:51.976Z,30.97
2018-12-06T17:47:19.763Z,28.97
2018-12-06T17:49:51.247Z,34.63
2018-12-06T17:52:20.808Z,31.33
2018-12-06T17:54:53.532Z,31.63
2018-12-06T17:57:22.222Z,29.70
2018-12-06T17:59:51.798Z,32.60
2018-12-06T18:02:20.271Z,33.10
2018-12-06T18:04:51.082Z,30.23
2018-12-06T18:07:21.342Z,34.23
2018-12-06T18:10:00.428Z,33.77
2018-12-06T18:12:28.795Z,31.20
2018-12-06T18:14:58.922Z,33.83
2018-12-06T18:17:27.712Z,27.63
2018-12-06T18:19:55.331Z,28.93
2018-12-06T18:22:25.583Z,29.30
2018-12-06T18:24:56.007Z,32.33
2018-12-06T18:27:23.616Z,26.60
2018-12-06T18:29:52.029Z,26.17
2018-12-06T18:32:24.346Z,30.00
2018-12-06T18:34:53.619Z,27.43
2018-12-06T18:37:25.726Z,23.73
2018-12-06T18:39:54.198Z,25.77
2018-12-06T18:42:22.531Z,28.03
2018-12-06T18:44:50.136Z,23.73
2018-12-06T18:47:19.184Z,26.17
2018-12-06T18:49:47.755Z,23.67
2018-12-06T18:52:16.269Z,23.50
2018-12-06T18:54:45.674Z,22.43
2018-12-06T18:57:15.618Z,24.90
2018-12-06T18:59:44.069Z,33.57
2018-12-06T19:02:15.893Z,25.50
2018-12-06T19:04:43.499Z,28.47
2018-12-06T19:07:11.186Z,25.57
2018-12-06T19:09:40.701Z,25.20
2018-12-06T19:12:08.320Z,25.13
2018-12-06T19:14:36.358Z,22.07
2018-12-06T19:17:07.995Z,19.53
2018-12-06T19:19:36.166Z,23.00
2018-12-06T19:22:04.192Z,23.23
2018-12-06T19:24:32.514Z,23.63
2018-12-06T19:27:00.955Z,24.00
2018-12-06T19:29:30.385Z,21.77
2018-12-06T19:31:58.832Z,19.87
2018-12-06T19:34:27.172Z,26.10
2018-12-06T19:36:55.931Z,24.77
2018-12-06T19:39:25.654Z,27.33
2018-12-06T19:41:53.499Z,25.93
2018-12-06T19:44:21.096Z,19.97
2018-12-06T19:46:49.786Z,23.37
2018-12-06T19:49:17.502Z,24.97
2018-12-06T19:51:49.891Z,21.53
2018-12-06T19:54:20.429Z,22.43
2018-12-06T19:56:50.203Z,26.93
2018-12-06T19:59:20.510Z,26.73
2018-12-06T20:01:50.881Z,22.73
2018-12-06T20:04:18.909Z,22.93
2018-12-06T20:06:47.129Z,20.57
2018-12-06T20:09:15.315Z,26.77
2018-12-06T20:11:43.107Z,22.43
2018-12-06T20:14:12.884Z,23.23
2018-12-06T20:16:40.506Z,24.40
2018-12-06T20:19:08.739Z,22.37
2018-12-06T20:21:36.562Z,22.43
2018-12-06T20:24:04.322Z,23.53
2018-12-06T20:26:32.659Z,21.90
2018-12-06T20:29:01.948Z,22.27
2018-12-06T20:31:31.466Z,26.83
2018-12-06T20:34:00.679Z,25.50
2018-12-06T20:36:31.315Z,24.57
2018-12-06T20:38:59.810Z,22.77
2018-12-06T20:41:30.101Z,20.87
2018-12-06T20:44:00.165Z,31.33
2018-12-06T20:46:30.509Z,21.80
2018-12-06T20:48:58.091Z,21.90
2018-12-06T20:51:25.923Z,29.57
2018-12-06T20:53:54.472Z,23.70
2018-12-06T20:56:22.082Z,23.80
2018-12-06T20:58:51.179Z,25.70
2018-12-06T21:01:20.249Z,26.30
2018-12-06T21:03:49.614Z,19.73
2018-12-06T21:06:17.195Z,23.53
2018-12-06T21:08:56.188Z,25.33
2018-12-06T21:11:24.741Z,20.90
2018-12-06T21:13:53.827Z,22.27
2018-12-06T21:16:25.604Z,20.20
2018-12-06T21:18:53.986Z,18.27
2018-12-06T21:21:23.385Z,23.13
2018-12-06T21:23:52.818Z,24.70
2018-12-06T21:26:20.652Z,24.63
2018-12-06T21:28:48.250Z,24.07
2018-12-06T21:31:16.162Z,23.07
2018-12-06T21:33:46.706Z,25.27
2018-12-06T21:36:14.511Z,22.67
2018-12-06T21:38:42.102Z,21.93
2018-12-06T21:41:11.216Z,21.73
2018-12-06T21:43:38.913Z,26.03
2018-12-06T21:46:06.708Z,23.63
2018-12-06T21:48:39.127Z,24.20
2018-12-06T21:51:07.260Z,20.93
2018-12-06T21:53:35.846Z,22.17
2018-12-06T21:56:05.412Z,22.27
2018-12-06T21:58:33.106Z,22.80
2018-12-06T22:01:01.390Z,23.20
2018-12-06T22:03:29.862Z,23.53
2018-12-06T22:06:00.173Z,23.00
2018-12-06T22:08:29.201Z,25.30
2018-12-06T22:10:56.791Z,21.03
2018-12-06T22:13:24.395Z,22.57
2018-12-06T22:15:52.256Z,22.67
2018-12-06T22:18:20.682Z,23.90
2018-12-06T22:20:48.249Z,21.00
2018-12-06T22:23:16.767Z,23.37
2018-12-06T22:25:45.427Z,21.13
2018-12-06T22:28:13.568Z,25.83
2018-12-06T22:30:42.506Z,22.33
2018-12-06T22:33:10.093Z,22.80
2018-12-06T22:35:40.559Z,26.50
2018-12-06T22:38:09.260Z,25.20
2018-12-06T22:40:37.108Z,27.87
2018-12-06T22:43:07.631Z,22.77
2018-12-06T22:45:56.254Z,21.83
2018-12-06T22:48:24.065Z,25.47
2018-12-06T22:50:51.680Z,24.27
2018-12-06T22:53:20.393Z,24.97
2018-12-06T22:55:47.973Z,22.57
2018-12-06T22:58:15.687Z,22.03
2018-12-06T23:00:47.027Z,22.63
2018-12-06T23:03:15.715Z,27.57
2018-12-06T23:05:43.862Z,24.10
2018-12-06T23:08:13.161Z,20.93
2018-12-06T23:10:41.555Z,23.20
2018-12-06T23:13:11.386Z,24.63
2018-12-06T23:15:39.197Z,17.60
2018-12-06T23:18:07.684Z,22.70
2018-12-06T23:20:35.265Z,21.20
2018-12-06T23:23:02.846Z,21.13
2018-12-06T23:25:30.669Z,24.17
2018-12-06T23:27:58.464Z,20.13
2018-12-06T23:30:26.760Z,21.30
2018-12-06T23:32:54.324Z,18.07
2018-12-06T23:35:21.917Z,24.10
2018-12-06T23:37:49.505Z,22.33
2018-12-06T23:40:17.166Z,22.93
2018-12-06T23:42:44.734Z,27.20
2018-12-06T23:45:12.365Z,22.83
2018-12-06T23:47:40.092Z,19.83
2018-12-06T23:50:07.670Z,21.53
2018-12-06T23:52:35.257Z,19.27
2018-12-06T23:55:03.823Z,22.97
2018-12-06T23:57:32.134Z,19.93
2018-12-06T23:59:59.715Z,20.23
